Time;durP1;ratioP1;P1;durP2;ratioP2;P2;SDS_P1;SDS_P2;PMS_P1;PMS_P2;Temp;Humidity;BMP_temperature;BMP_pressure;BME280_temperature;BME280_humidity;BME280_pressure;Samples;Min_cycle;Max_cycle;Signal;HPM_P1;HPM_P2
2022/12/26 00:00:25;;;;;;;5.40;4.10;;;;;;;10.14;100.00;100143.41;105854;1291;59012;-75
2022/12/26 00:02:52;;;;;;;7.60;4.20;;;;;;;10.15;100.00;100145.94;105805;1291;72690;-75
2022/12/26 00:05:18;;;;;;;5.80;4.20;;;;;;;10.15;100.00;100148.89;105829;1290;62066;-75
2022/12/26 00:07:45;;;;;;;5.00;3.70;;;;;;;10.15;100.00;100142.66;105816;1291;59067;-75
2022/12/26 00:10:12;;;;;;;4.80;3.60;;;;;;;10.16;100.00;100146.66;105738;1292;73715;-75
2022/12/26 00:12:38;;;;;;;6.50;4.10;;;;;;;10.17;100.00;100152.38;105679;1283;58948;-80
2022/12/26 00:15:05;;;;;;;6.90;3.90;;;;;;;10.17;100.00;100156.13;105804;1292;59125;-80
2022/12/26 00:17:31;;;;;;;5.30;3.90;;;;;;;10.17;100.00;100149.89;105972;1291;62241;-80
2022/12/26 00:19:58;;;;;;;6.60;4.00;;;;;;;10.18;100.00;100149.75;105639;1291;58944;-80
2022/12/26 00:22:24;;;;;;;5.60;4.20;;;;;;;10.18;100.00;100149.59;105882;1287;58919;-80
2022/12/26 00:24:51;;;;;;;5.40;4.10;;;;;;;10.19;100.00;100142.77;105925;1290;59099;-81
2022/12/26 00:27:17;;;;;;;5.40;3.80;;;;;;;10.18;100.00;100147.48;105721;1293;59158;-81
2022/12/26 00:29:46;;;;;;;4.60;3.80;;;;;;;10.18;100.00;100150.89;105871;1292;59167;-80
2022/12/26 00:32:13;;;;;;;5.40;4.00;;;;;;;10.19;100.00;100144.21;105904;1287;60494;-81
2022/12/26 00:34:39;;;;;;;5.70;4.30;;;;;;;10.19;100.00;100150.66;105989;1287;59139;-80
2022/12/26 00:37:06;;;;;;;5.60;4.00;;;;;;;10.20;100.00;100147.82;105707;1285;59190;-80
2022/12/26 00:39:32;;;;;;;6.70;4.20;;;;;;;10.22;100.00;100145.98;105953;1291;58986;-79
2022/12/26 00:41:59;;;;;;;5.40;4.20;;;;;;;10.21;100.00;100138.23;105764;1290;59394;-79
2022/12/26 00:44:25;;;;;;;5.80;4.10;;;;;;;10.21;100.00;100130.70;105628;1293;59091;-80
2022/12/26 00:46:51;;;;;;;6.30;4.20;;;;;;;10.22;100.00;100129.84;105791;1288;59066;-80
2022/12/26 00:49:18;;;;;;;6.20;4.50;;;;;;;10.22;100.00;100129.69;105695;1287;59049;-80
2022/12/26 00:51:44;;;;;;;6.30;4.60;;;;;;;10.22;100.00;100135.02;105944;1291;59365;-80
2022/12/26 00:54:11;;;;;;;5.60;4.10;;;;;;;10.21;100.00;100139.63;105870;1292;58927;-79
2022/12/26 00:56:37;;;;;;;7.30;4.70;;;;;;;10.20;100.00;100138.36;105870;1288;59333;-79
2022/12/26 00:59:04;;;;;;;5.80;4.50;;;;;;;10.21;100.00;100139.02;105657;1284;59188;-79
2022/12/26 01:01:31;;;;;;;6.80;5.00;;;;;;;10.21;100.00;100144.48;105660;1286;59839;-79
2022/12/26 01:03:58;;;;;;;6.40;5.30;;;;;;;10.22;100.00;100141.33;105710;1297;72735;-79
2022/12/26 01:06:24;;;;;;;7.00;5.00;;;;;;;10.23;100.00;100146.61;105751;1294;62158;-79
2022/12/26 01:08:52;;;;;;;6.60;5.50;;;;;;;10.22;100.00;100154.08;105707;1290;59412;-80
2022/12/26 01:14:05;;;;;;;7.40;5.60;;;;;;;10.23;100.00;100160.65;105814;1291;71175;-80
2022/12/26 01:16:32;;;;;;;7.50;6.40;;;;;;;10.24;100.00;100153.69;105595;1293;71852;-80
2022/12/26 01:18:58;;;;;;;6.90;6.10;;;;;;;10.24;100.00;100153.02;105549;1287;61774;-80
2022/12/26 01:21:25;;;;;;;9.00;7.10;;;;;;;10.25;100.00;100144.11;105704;1292;59343;-80
2022/12/26 01:23:51;;;;;;;8.10;6.70;;;;;;;10.26;100.00;100137.96;105680;1292;59515;-80
2022/12/26 01:26:18;;;;;;;7.80;6.70;;;;;;;10.26;100.00;100135.44;105644;1293;59133;-80
2022/12/26 01:28:49;;;;;;;9.60;6.90;;;;;;;10.25;100.00;100136.24;105703;1295;73124;-80
2022/12/26 01:31:16;;;;;;;11.10;6.90;;;;;;;10.23;100.00;100141.02;105631;1299;61596;-81
2022/12/26 01:33:42;;;;;;;9.70;7.40;;;;;;;10.21;100.00;100139.92;105627;1294;60546;-80
2022/12/26 01:36:09;;;;;;;9.80;7.30;;;;;;;10.20;100.00;100143.01;105652;1293;74923;-79
2022/12/26 01:38:35;;;;;;;9.50;7.10;;;;;;;10.18;100.00;100145.63;105680;1292;71557;-80
2022/12/26 01:41:20;;;;;;;8.60;6.90;;;;;;;10.20;100.00;100150.34;105594;1287;71353;-80
2022/12/26 01:43:54;;;;;;;9.20;6.90;;;;;;;10.22;100.00;100153.49;105559;1293;60484;-80
2022/12/26 01:46:38;;;;;;;7.70;6.60;;;;;;;10.22;100.00;100148.07;105699;1294;60218;-80
2022/12/26 01:49:34;;;;;;;8.80;7.10;;;;;;;10.24;100.00;100141.36;105642;1294;75532;-80
2022/12/26 01:52:27;;;;;;;7.70;6.70;;;;;;;10.24;100.00;100155.27;105590;1295;70834;-80
2022/12/26 01:54:54;;;;;;;8.60;7.00;;;;;;;10.24;100.00;100162.17;105612;1291;71179;-80
2022/12/26 01:57:34;;;;;;;8.30;7.20;;;;;;;10.23;100.00;100170.89;105805;1290;61526;-80
2022/12/26 02:00:02;;;;;;;8.00;7.00;;;;;;;10.23;100.00;100169.74;105696;1281;59067;-79
2022/12/26 02:02:29;;;;;;;9.20;7.10;;;;;;;10.23;100.00;100183.52;105622;1288;73370;-80
2022/12/26 02:07:44;;;;;;;8.00;6.70;;;;;;;10.15;100.00;100190.20;105597;1287;71808;-79
2022/12/26 02:10:16;;;;;;;8.40;7.20;;;;;;;10.08;100.00;100188.92;105636;1296;60710;-79
2022/12/26 02:12:43;;;;;;;9.60;7.70;;;;;;;10.04;100.00;100176.94;105570;1291;59162;-79
2022/12/26 02:15:14;;;;;;;8.30;7.30;;;;;;;10.01;100.00;100185.20;105543;1292;73577;-79
2022/12/26 02:17:41;;;;;;;8.30;6.90;;;;;;;9.98;100.00;100189.48;105511;1293;71464;-79
2022/12/26 02:20:11;;;;;;;7.70;6.50;;;;;;;9.91;100.00;100188.70;105623;1288;71515;-79
2022/12/26 02:23:00;;;;;;;7.40;6.60;;;;;;;9.85;100.00;100188.91;105788;1292;60677;-80
2022/12/26 02:25:56;;;;;;;7.30;6.50;;;;;;;9.81;100.00;100200.34;105666;1290;59270;-80
2022/12/26 02:28:37;;;;;;;8.50;7.00;;;;;;;9.79;100.00;100204.22;105639;1296;74559;-80
2022/12/26 02:31:10;;;;;;;8.30;6.90;;;;;;;9.78;100.00;100202.18;105831;1292;69523;-80
2022/12/26 02:33:47;;;;;;;9.70;7.40;;;;;;;9.77;100.00;100211.20;105678;1295;72192;-80
2022/12/26 02:36:28;;;;;;;8.20;7.20;;;;;;;9.75;100.00;100213.58;105617;1288;61812;-80
2022/12/26 02:39:18;;;;;;;8.50;7.30;;;;;;;9.73;100.00;100206.88;105651;1292;60418;-80
2022/12/26 02:42:32;;;;;;;8.40;6.60;;;;;;;9.72;100.00;100206.65;105689;1290;75388;-79
2022/12/26 02:48:04;;;;;;;8.60;6.90;;;;;;;9.69;100.00;100205.26;105825;1288;72904;-80
2022/12/26 03:14:34;;;;;;;8.50;7.10;;;;;;;9.62;100.00;100208.90;105633;1300;71448;-79
2022/12/26 03:17:20;;;;;;;10.90;7.10;;;;;;;9.61;100.00;100212.80;105495;1293;73903;-79
2022/12/26 03:20:00;;;;;;;10.50;7.60;;;;;;;9.59;100.00;100200.10;105591;1294;62221;-79
2022/12/26 03:22:51;;;;;;;8.20;7.20;;;;;;;9.60;100.00;100206.39;105792;1291;59756;-79
2022/12/26 03:28:25;;;;;;;8.40;6.90;;;;;;;9.63;100.00;100201.25;105633;1295;71278;-79
2022/12/26 03:30:54;;;;;;;9.00;7.10;;;;;;;9.64;100.00;100198.69;105779;1292;72256;-79
2022/12/26 03:36:10;;;;;;;9.70;7.30;;;;;;;9.65;100.00;100198.27;105774;1291;61137;-78
2022/12/26 03:38:54;;;;;;;8.90;7.10;;;;;;;9.67;100.00;100199.55;105492;1283;73300;-79
2022/12/26 04:19:26;;;;;;;7.00;6.20;;;;;;;9.84;100.00;100236.16;105635;1292;61657;-78
2022/12/26 04:44:44;;;;;;;7.80;6.20;;;;;;;9.87;100.00;100223.77;105554;1290;62074;-78
2022/12/26 04:47:11;;;;;;;7.20;6.20;;;;;;;9.88;100.00;100224.84;105657;1286;59071;-78
2022/12/26 04:55:13;;;;;;;8.00;6.70;;;;;;;9.89;100.00;100226.38;105750;1292;72395;-78
2022/12/26 04:57:39;;;;;;;8.60;7.00;;;;;;;9.91;100.00;100218.77;105784;1291;58956;-78
2022/12/26 05:00:06;;;;;;;7.50;6.50;;;;;;;9.92;100.00;100222.73;105646;1292;59282;-78
2022/12/26 05:10:48;;;;;;;8.20;6.50;;;;;;;9.90;100.00;100238.68;105736;1283;60983;-77
2022/12/26 05:13:15;;;;;;;8.30;6.90;;;;;;;9.88;100.00;100248.21;105768;1290;59049;-77
2022/12/26 05:29:29;;;;;;;8.00;5.80;;;;;;;9.75;100.00;100252.79;105624;1294;73846;-78
2022/12/26 05:31:55;;;;;;;6.40;5.60;;;;;;;9.73;100.00;100263.77;105737;1290;59295;-78
2022/12/26 05:34:22;;;;;;;6.60;5.70;;;;;;;9.72;100.00;100273.64;105637;1295;72748;-79
2022/12/26 05:36:54;;;;;;;6.50;5.50;;;;;;;9.71;100.00;100275.66;105666;1292;59132;-78
2022/12/26 05:39:21;;;;;;;6.90;5.40;;;;;;;9.72;100.00;100282.93;105600;1294;58725;-79
2022/12/26 05:41:48;;;;;;;6.60;5.10;;;;;;;9.70;100.00;100284.40;105620;1292;74672;-77
2022/12/26 05:44:14;;;;;;;6.10;5.10;;;;;;;9.71;100.00;100283.54;105640;1293;72515;-79
2022/12/26 05:46:41;;;;;;;7.30;5.60;;;;;;;9.71;100.00;100284.27;105651;1290;71824;-78
2022/12/26 05:49:08;;;;;;;6.20;4.80;;;;;;;9.72;100.00;100288.46;105821;1284;62003;-79
2022/12/26 05:51:35;;;;;;;6.30;4.80;;;;;;;9.72;100.00;100283.55;105624;1291;59324;-79
2022/12/26 05:54:01;;;;;;;5.30;4.70;;;;;;;9.70;100.00;100283.15;105757;1291;73109;-79
2022/12/26 05:56:28;;;;;;;5.70;5.00;;;;;;;9.70;100.00;100283.22;105653;1294;59046;-79
2022/12/26 05:58:57;;;;;;;5.80;5.00;;;;;;;9.67;100.00;100285.45;105663;1292;58315;-79
2022/12/26 06:01:24;;;;;;;5.90;4.60;;;;;;;9.65;100.00;100287.50;105539;1284;60440;-80
2022/12/26 06:03:54;;;;;;;6.20;5.10;;;;;;;9.63;100.00;100281.91;105596;1287;60719;-79
2022/12/26 06:06:23;;;;;;;5.70;4.90;;;;;;;9.60;100.00;100288.77;105540;1295;74865;-79
2022/12/26 06:08:51;;;;;;;4.40;3.60;;;;;;;9.57;100.00;100288.20;105566;1295;70787;-79
2022/12/26 06:11:19;;;;;;;5.20;4.00;;;;;;;9.56;100.00;100275.98;105572;1288;70771;-79
2022/12/26 06:13:45;;;;;;;4.80;3.90;;;;;;;9.57;100.00;100268.30;105559;1294;61847;-79
2022/12/26 06:16:15;;;;;;;5.10;4.20;;;;;;;9.57;100.00;100269.85;105811;1291;58971;-80
2022/12/26 06:18:41;;;;;;;5.10;3.80;;;;;;;9.53;100.00;100268.37;105668;1294;73526;-80
2022/12/26 06:21:11;;;;;;;5.70;4.30;;;;;;;9.51;100.00;100265.80;105815;1291;71183;-80
2022/12/26 06:23:38;;;;;;;5.00;3.80;;;;;;;9.49;100.00;100268.54;105558;1290;71110;-79
2022/12/26 06:26:07;;;;;;;5.30;3.90;;;;;;;9.45;100.00;100269.50;105535;1295;61755;-79
2022/12/26 06:28:35;;;;;;;4.30;3.60;;;;;;;9.43;100.00;100271.50;105584;1287;59050;-79
2022/12/26 06:31:03;;;;;;;4.50;3.50;;;;;;;9.39;100.00;100275.83;105577;1288;75832;-79
2022/12/26 06:33:30;;;;;;;4.50;3.20;;;;;;;9.35;100.00;100287.11;105670;1291;70875;-79
2022/12/26 06:36:06;;;;;;;5.20;3.20;;;;;;;9.30;100.00;100297.04;105609;1293;71424;-78
2022/12/26 06:38:33;;;;;;;4.70;3.30;;;;;;;9.26;100.00;100301.20;105429;1294;217977;-79
2022/12/26 06:41:00;;;;;;;4.40;3.20;;;;;;;9.22;100.00;100297.10;105682;1278;58854;-79
2022/12/26 06:43:26;;;;;;;4.60;3.20;;;;;;;9.16;100.00;100295.05;105672;1290;74757;-79
2022/12/26 06:45:54;;;;;;;4.30;3.20;;;;;;;9.12;100.00;100298.88;105803;1291;59127;-79
2022/12/26 06:48:22;;;;;;;5.20;3.30;;;;;;;9.08;100.00;100314.13;105575;1294;71010;-79
2022/12/26 06:50:49;;;;;;;4.70;3.90;;;;;;;9.04;100.00;100314.23;105708;1291;60030;-79
2022/12/26 06:53:15;;;;;;;4.60;3.20;;;;;;;9.01;100.00;100314.29;105535;1291;59247;-80
2022/12/26 06:55:42;;;;;;;4.40;3.60;;;;;;;8.97;100.00;100305.81;105688;1294;59223;-79
2022/12/26 06:58:09;;;;;;;5.10;3.50;;;;;;;8.96;100.00;100306.17;105587;1295;59334;-78
2022/12/26 07:00:36;;;;;;;5.60;3.50;;;;;;;8.94;100.00;100311.11;105619;1293;72003;-79
2022/12/26 07:03:03;;;;;;;5.10;3.90;;;;;;;8.92;100.00;100311.03;105675;1285;59787;-79
2022/12/26 07:05:29;;;;;;;5.60;4.10;;;;;;;8.89;100.00;100307.64;105667;1294;59112;-79
2022/12/26 07:07:56;;;;;;;4.90;3.90;;;;;;;8.89;100.00;100302.42;105592;1291;59526;-79
2022/12/26 07:10:22;;;;;;;5.20;3.90;;;;;;;8.87;100.00;100302.39;105689;1294;58864;-80
2022/12/26 07:12:49;;;;;;;5.90;4.40;;;;;;;8.85;100.00;100296.09;105808;1283;58982;-79
2022/12/26 07:15:15;;;;;;;7.40;5.20;;;;;;;8.84;100.00;100285.52;105569;1292;59448;-79
2022/12/26 07:17:42;;;;;;;5.40;4.30;;;;;;;8.81;100.00;100289.33;105618;1291;59167;-79
2022/12/26 07:20:09;;;;;;;5.80;4.50;;;;;;;8.78;100.00;100302.14;105706;1278;59060;-79
2022/12/26 07:22:35;;;;;;;4.90;4.40;;;;;;;8.75;100.00;100313.42;105721;1294;70733;-79
2022/12/26 07:25:02;;;;;;;6.10;4.90;;;;;;;8.74;100.00;100320.15;105582;1294;71359;-79
2022/12/26 07:27:29;;;;;;;6.70;4.60;;;;;;;8.71;100.00;100321.09;105610;1286;61383;-79
2022/12/26 07:29:55;;;;;;;7.90;5.40;;;;;;;8.70;100.00;100316.00;105831;1297;58863;-79
2022/12/26 07:32:21;;;;;;;6.60;4.90;;;;;;;8.67;100.00;100322.13;105708;1293;59064;-79
2022/12/26 07:34:48;;;;;;;6.70;5.10;;;;;;;8.65;100.00;100308.64;105574;1288;59081;-79
2022/12/26 07:37:14;;;;;;;7.10;5.80;;;;;;;8.62;100.00;100308.40;105828;1291;59368;-79
2022/12/26 07:39:41;;;;;;;7.50;6.20;;;;;;;8.60;100.00;100314.29;105823;1285;59248;-79
2022/12/26 07:42:07;;;;;;;9.20;7.10;;;;;;;8.58;100.00;100312.71;105687;1294;59026;-79
2022/12/26 07:44:34;;;;;;;9.40;7.20;;;;;;;8.56;100.00;100318.87;105605;1288;59013;-79
2022/12/26 07:47:00;;;;;;;9.60;7.70;;;;;;;8.59;100.00;100341.39;105872;1288;59018;-79
2022/12/26 07:49:27;;;;;;;8.80;7.30;;;;;;;8.60;100.00;100339.34;105857;1288;59109;-79
2022/12/26 07:51:53;;;;;;;9.30;7.70;;;;;;;8.60;100.00;100332.96;105788;1284;58339;-79
2022/12/26 07:54:20;;;;;;;10.10;7.70;;;;;;;8.61;100.00;100330.02;105709;1289;58959;-79
2022/12/26 07:56:46;;;;;;;10.00;8.10;;;;;;;8.61;100.00;100335.30;105512;1297;59108;-79
2022/12/26 07:59:14;;;;;;;11.00;7.40;;;;;;;8.62;100.00;100351.06;105789;1291;59034;-79
2022/12/26 08:01:42;;;;;;;9.30;7.20;;;;;;;8.64;100.00;100363.05;105504;1297;72316;-80
2022/12/26 08:04:10;;;;;;;10.30;7.00;;;;;;;8.66;100.00;100362.65;105489;1291;60211;-79
2022/12/26 08:06:37;;;;;;;9.80;7.30;;;;;;;8.68;100.00;100359.90;105685;1292;60150;-80
2022/12/26 08:09:04;;;;;;;9.40;7.30;;;;;;;8.72;100.00;100353.86;105608;1291;74661;-79
2022/12/26 08:11:33;;;;;;;8.70;7.10;;;;;;;8.73;100.00;100353.14;105689;1288;69904;-79
2022/12/26 08:14:01;;;;;;;9.70;6.90;;;;;;;8.76;100.00;100348.06;105559;1287;72045;-79
2022/12/26 08:16:27;;;;;;;8.70;7.00;;;;;;;8.78;100.00;100345.88;105668;1291;60186;-79
2022/12/26 08:18:54;;;;;;;9.40;7.00;;;;;;;8.82;100.00;100348.35;105566;1286;60672;-78
2022/12/26 08:21:20;;;;;;;10.20;7.10;;;;;;;8.85;100.00;100354.48;105602;1287;59360;-78
2022/12/26 08:23:47;;;;;;;8.40;6.40;;;;;;;8.88;100.00;100358.51;105660;1294;59328;-78
2022/12/26 08:26:19;;;;;;;8.20;6.30;;;;;;;8.92;100.00;100359.84;105629;1296;71144;-79
2022/12/26 08:28:46;;;;;;;9.30;6.50;;;;;;;8.96;100.00;100358.36;105832;1291;62362;-76
2022/12/26 08:31:13;;;;;;;7.00;5.50;;;;;;;9.01;100.00;100357.29;105527;1294;59600;-76
2022/12/26 08:33:39;;;;;;;8.30;6.00;;;;;;;9.05;100.00;100354.95;105655;1291;73193;-77
2022/12/26 08:36:08;;;;;;;7.90;5.10;;;;;;;9.08;100.00;100351.36;105862;1290;69594;-76
2022/12/26 08:38:36;;;;;;;6.80;5.60;;;;;;;9.14;100.00;100348.79;105654;1287;71373;-76
2022/12/26 08:41:03;;;;;;;7.40;5.80;;;;;;;9.18;100.00;100350.29;105607;1288;59605;-77
2022/12/26 08:43:29;;;;;;;7.50;5.50;;;;;;;9.21;99.93;100357.34;105698;1284;60234;-76
2022/12/26 08:46:18;;;;;;;6.70;5.40;;;;;;;9.23;99.60;100364.50;105756;1291;74248;-76
2022/12/26 08:48:45;;;;;;;6.90;5.50;;;;;;;9.26;99.57;100368.60;105693;1294;69539;-77
2022/12/26 08:51:19;;;;;;;6.80;5.50;;;;;;;9.28;99.30;100371.40;105628;1287;72569;-77
2022/12/26 08:53:46;;;;;;;6.50;5.20;;;;;;;9.27;98.74;100375.30;105041;1294;61305;-77
2022/12/26 08:56:15;;;;;;;6.90;5.10;;;;;;;9.28;98.47;100380.98;105552;1283;58985;-77
2022/12/26 08:58:42;;;;;;;6.80;5.20;;;;;;;9.31;98.26;100378.57;105592;1284;73766;-77
2022/12/26 09:01:12;;;;;;;6.10;4.80;;;;;;;9.35;97.85;100372.84;105542;1287;69813;-78
2022/12/26 09:03:40;;;;;;;6.70;4.90;;;;;;;9.39;97.17;100366.77;105803;1291;71137;-77
2022/12/26 09:06:07;;;;;;;7.50;5.10;;;;;;;9.44;96.61;100369.55;105604;1290;60552;-78
2022/12/26 09:08:35;;;;;;;6.40;5.00;;;;;;;9.49;95.90;100375.33;105625;1291;59461;-78
2022/12/26 09:11:02;;;;;;;5.50;4.30;;;;;;;9.54;94.95;100388.17;105636;1290;74689;-77
2022/12/26 09:13:30;;;;;;;6.20;4.50;;;;;;;9.58;94.13;100390.50;105793;1284;71629;-77
2022/12/26 09:16:06;;;;;;;6.50;4.80;;;;;;;9.64;93.77;100393.50;105525;1288;72112;-77
2022/12/26 09:18:33;;;;;;;5.80;4.60;;;;;;;9.69;93.60;100391.59;105795;1292;61524;-78
2022/12/26 09:21:04;;;;;;;5.50;4.50;;;;;;;9.73;93.26;100381.40;105680;1290;59032;-73
2022/12/26 09:23:31;;;;;;;5.30;4.30;;;;;;;9.77;93.08;100386.73;105761;1291;74486;-73
2022/12/26 09:26:16;;;;;;;5.50;4.50;;;;;;;9.82;93.08;100399.97;105574;1287;71015;-73
2022/12/26 09:28:45;;;;;;;5.20;4.30;;;;;;;9.87;92.68;100395.56;105497;1287;72894;-72
2022/12/26 09:31:14;;;;;;;5.80;4.30;;;;;;;9.91;92.52;100397.31;105526;1292;60451;-73
2022/12/26 09:33:41;;;;;;;5.60;4.40;;;;;;;9.93;92.15;100400.61;105753;1285;60472;-73
2022/12/26 09:36:14;;;;;;;5.30;4.20;;;;;;;9.97;92.11;100399.33;105680;1290;74392;-73
2022/12/26 09:38:43;;;;;;;6.40;4.50;;;;;;;9.98;91.62;100396.14;105542;1294;69544;-73
2022/12/26 09:41:34;;;;;;;4.70;3.90;;;;;;;9.98;91.01;100403.39;105631;1290;72786;-71
2022/12/26 09:44:32;;;;;;;5.10;3.90;;;;;;;10.04;91.02;100401.85;105652;1275;60517;-71
2022/12/26 09:47:17;;;;;;;5.30;4.10;;;;;;;10.06;90.49;100392.98;105750;1291;59031;-71
2022/12/26 09:49:54;;;;;;;5.10;3.90;;;;;;;10.10;90.44;100394.06;105769;1284;74490;-72
2022/12/26 09:52:35;;;;;;;4.40;3.50;;;;;;;10.11;89.94;100401.33;105773;1291;69683;-72
2022/12/26 09:55:24;;;;;;;5.40;3.80;;;;;;;10.12;89.34;100400.35;105640;1294;72435;-72
2022/12/26 09:57:53;;;;;;;5.80;4.00;;;;;;;10.15;89.21;100395.39;105563;1287;60488;-71
2022/12/26 10:00:26;;;;;;;5.40;4.10;;;;;;;10.20;89.33;100393.92;105638;1287;59305;-72
2022/12/26 10:02:55;;;;;;;5.80;4.40;;;;;;;10.24;89.49;100392.46;105628;1294;74560;-72
2022/12/26 10:05:33;;;;;;;8.80;5.10;;;;;;;10.29;89.42;100390.98;105606;1288;68683;-72
2022/12/26 10:08:22;;;;;;;6.20;4.80;;;;;;;10.37;89.39;100383.55;105663;1291;71438;-72
2022/12/26 10:11:00;;;;;;;7.40;5.40;;;;;;;10.46;89.50;100373.45;105612;1287;61800;-71
2022/12/26 10:13:42;;;;;;;6.80;4.80;;;;;;;10.52;89.41;100375.52;105616;1293;58949;-72
2022/12/26 10:16:42;;;;;;;6.50;5.70;;;;;;;10.52;88.75;100380.31;105748;1292;73437;-72
2022/12/26 10:19:28;;;;;;;7.20;5.40;;;;;;;10.51;88.69;100388.77;105528;1284;70598;-72
2022/12/26 10:22:27;;;;;;;6.90;5.70;;;;;;;10.51;88.90;100381.60;105636;1291;71785;-72
2022/12/26 10:24:57;;;;;;;7.20;6.10;;;;;;;10.51;88.75;100380.02;105674;1287;61806;-72
2022/12/26 10:27:26;;;;;;;8.60;6.70;;;;;;;10.51;88.65;100382.05;105578;1291;59222;-72
2022/12/26 10:30:00;;;;;;;7.30;6.10;;;;;;;10.48;88.80;100384.70;105630;1290;74478;-72
2022/12/26 10:32:36;;;;;;;6.80;5.90;;;;;;;10.45;88.88;100388.08;105763;1284;71680;-72
2022/12/26 10:35:21;;;;;;;6.20;5.60;;;;;;;10.43;89.13;100394.29;105743;1291;71155;-72
2022/12/26 10:37:49;;;;;;;7.70;6.30;;;;;;;10.39;88.59;100400.73;105603;1291;60979;-72
2022/12/26 10:40:23;;;;;;;7.20;6.10;;;;;;;10.44;89.05;100396.31;105772;1291;58997;-71
2022/12/26 10:43:30;;;;;;;7.20;5.90;;;;;;;10.47;88.58;100391.51;105643;1292;73369;-71
2022/12/26 10:46:02;;;;;;;7.90;6.30;;;;;;;10.50;87.21;100384.65;105741;1283;70870;-71
2022/12/26 10:48:29;;;;;;;7.00;6.10;;;;;;;10.57;87.01;100375.88;105745;1291;72694;-71
2022/12/26 10:50:55;;;;;;;6.60;5.10;;;;;;;10.66;86.52;100381.52;105781;1284;58816;-71
2022/12/26 10:53:22;;;;;;;6.70;6.00;;;;;;;10.72;86.00;100363.61;105670;1291;58853;-71
2022/12/26 10:55:48;;;;;;;7.10;6.00;;;;;;;10.77;86.01;100360.46;105744;1292;74458;-71
2022/12/26 10:58:20;;;;;;;6.80;4.90;;;;;;;10.81;85.87;100354.91;105646;1293;59196;-72
2022/12/26 11:00:46;;;;;;;7.30;6.40;;;;;;;10.82;85.67;100354.84;105450;1295;73093;-71
2022/12/26 11:03:15;;;;;;;6.80;6.00;;;;;;;10.81;85.73;100357.10;105722;1291;58913;-72
2022/12/26 11:05:46;;;;;;;7.60;6.10;;;;;;;10.77;85.50;100357.59;105597;1287;59087;-72
2022/12/26 11:08:37;;;;;;;6.70;5.50;;;;;;;10.74;85.57;100365.15;105086;1287;76616;-71
2022/12/26 11:11:20;;;;;;;7.00;5.90;;;;;;;10.77;85.78;100369.42;105783;1284;69874;-73
2022/12/26 11:13:52;;;;;;;7.30;4.70;;;;;;;10.76;85.04;100368.68;105780;1291;71790;-72
2022/12/26 11:16:37;;;;;;;4.50;3.90;;;;;;;10.77;84.14;100370.66;105562;1283;62755;-71
2022/12/26 11:19:03;;;;;;;5.30;4.10;;;;;;;10.85;84.46;100361.77;105782;1292;59168;-72
2022/12/26 11:21:31;;;;;;;4.30;3.70;;;;;;;10.89;84.42;100367.66;105627;1294;74135;-72
2022/12/26 11:24:07;;;;;;;4.10;3.70;;;;;;;10.89;84.27;100377.38;105569;1293;70844;-71
2022/12/26 11:26:34;;;;;;;5.20;3.80;;;;;;;10.84;83.89;100375.11;105723;1291;72381;-71
2022/12/26 11:29:11;;;;;;;4.70;4.20;;;;;;;10.84;84.56;100373.29;105771;1291;60410;-71
2022/12/26 11:31:41;;;;;;;6.00;3.70;;;;;;;10.84;84.75;100375.08;105779;1291;59220;-71
2022/12/26 11:34:16;;;;;;;4.00;3.50;;;;;;;10.88;84.41;100362.92;105291;1291;74571;-72
2022/12/26 11:36:49;;;;;;;4.70;3.40;;;;;;;10.97;83.98;100362.41;105573;1294;70927;-72
2022/12/26 11:39:23;;;;;;;4.40;3.40;;;;;;;11.01;83.96;100362.25;105630;1299;72701;-71
2022/12/26 11:41:51;;;;;;;4.60;3.40;;;;;;;11.04;83.65;100357.48;105654;1291;62020;-71
2022/12/26 11:44:28;;;;;;;5.00;3.10;;;;;;;11.10;82.90;100355.66;105571;1294;60113;-72
2022/12/26 11:47:11;;;;;;;4.40;3.50;;;;;;;11.18;82.51;100353.07;105554;1283;73282;-72
2022/12/26 11:49:44;;;;;;;3.50;3.00;;;;;;;11.34;81.75;100352.58;105759;1284;69952;-72
2022/12/26 11:52:36;;;;;;;3.70;3.20;;;;;;;11.69;81.14;100343.08;105641;1277;72986;-71
2022/12/26 11:55:21;;;;;;;4.00;3.30;;;;;;;11.79;80.23;100343.05;105736;1292;62502;-71
2022/12/26 11:58:07;;;;;;;5.30;3.40;;;;;;;11.78;80.04;100345.85;105776;1282;59589;-71
2022/12/26 12:00:42;;;;;;;4.00;3.20;;;;;;;11.67;79.39;100347.02;105670;1287;74165;-72
2022/12/26 12:03:16;;;;;;;4.10;2.70;;;;;;;11.55;78.13;100343.57;105531;1291;71165;-72
2022/12/26 12:05:58;;;;;;;4.20;2.50;;;;;;;11.48;78.03;100345.98;105757;1284;71427;-72
2022/12/26 12:08:36;;;;;;;5.00;2.70;;;;;;;11.41;78.54;100343.14;105729;1291;60419;-72
2022/12/26 12:11:15;;;;;;;4.30;2.60;;;;;;;11.32;79.01;100342.55;105631;1277;60461;-72
2022/12/26 12:14:01;;;;;;;4.40;2.50;;;;;;;11.23;79.42;100343.44;105805;1284;73602;-72
2022/12/26 12:17:12;;;;;;;3.90;2.60;;;;;;;11.16;79.93;100344.84;105771;1291;69888;-72
2022/12/26 12:19:57;;;;;;;2.90;2.00;;;;;;;11.02;79.84;100359.49;105167;1294;71146;-72
2022/12/26 12:22:52;;;;;;;5.20;2.50;;;;;;;10.96;80.22;100348.92;105725;1290;60130;-72
2022/12/26 12:25:38;;;;;;;4.50;1.90;;;;;;;10.84;80.92;100360.66;105647;1294;59118;-72
2022/12/26 12:28:32;;;;;;;3.30;2.00;;;;;;;10.72;82.36;100345.27;105784;1291;73202;-71
2022/12/26 12:31:10;;;;;;;3.40;2.20;;;;;;;10.62;83.45;100353.45;105776;1291;69834;-72
2022/12/26 12:33:55;;;;;;;4.30;2.10;;;;;;;10.58;83.70;100343.52;105608;1275;70293;-72
2022/12/26 12:36:33;;;;;;;4.50;2.00;;;;;;;10.55;83.71;100343.42;105798;1284;62148;-72
2022/12/26 12:39:15;;;;;;;3.60;2.10;;;;;;;10.52;83.09;100338.80;105471;1294;59415;-72
2022/12/26 12:41:59;;;;;;;3.80;2.50;;;;;;;10.55;82.81;100322.09;105608;1292;73079;-71
2022/12/26 12:45:19;;;;;;;5.20;2.30;;;;;;;10.61;83.07;100316.98;105768;1291;72588;-72
2022/12/26 12:48:03;;;;;;;4.40;2.40;;;;;;;10.66;82.74;100308.34;105649;1284;71835;-72
2022/12/26 12:50:40;;;;;;;5.00;2.20;;;;;;;10.70;82.59;100301.09;105766;1291;62095;-72
2022/12/26 12:53:22;;;;;;;5.30;2.50;;;;;;;10.76;81.82;100311.14;105700;1284;58856;-71
2022/12/26 12:56:28;;;;;;;7.20;5.40;;;;;;;10.83;81.11;100312.13;105661;1290;74719;-72
2022/12/26 12:59:16;;;;;;;5.00;3.20;;;;;;;10.86;80.21;100312.63;105735;1284;69590;-71
2022/12/26 13:01:46;;;;;;;3.50;2.30;;;;;;;10.88;79.75;100307.75;105551;1286;71177;-71
2022/12/26 13:04:25;;;;;;;4.40;2.50;;;;;;;10.91;79.96;100303.44;105775;1291;60455;-72
2022/12/26 13:07:13;;;;;;;4.20;2.60;;;;;;;10.93;79.79;100307.86;105587;1287;59182;-72
2022/12/26 13:09:47;;;;;;;4.10;3.00;;;;;;;10.97;79.84;100303.33;105750;1284;72148;-71
2022/12/26 13:12:20;;;;;;;3.80;3.40;;;;;;;10.99;80.00;100301.23;105753;1291;69441;-72
2022/12/26 13:14:56;;;;;;;3.90;2.50;;;;;;;11.01;79.82;100302.27;105738;1284;71167;-71
2022/12/26 13:17:35;;;;;;;5.00;2.60;;;;;;;11.03;79.61;100298.55;105692;1284;60429;-71
2022/12/26 13:20:08;;;;;;;4.50;2.10;;;;;;;11.06;79.51;100307.02;105595;1292;60143;-72
2022/12/26 13:25:35;;;;;;;3.30;1.90;;;;;;;11.07;78.55;100304.75;105786;1291;69624;-72
2022/12/26 13:28:10;;;;;;;3.40;2.00;;;;;;;11.10;78.37;100310.55;105542;1295;72497;-72
2022/12/26 13:30:38;;;;;;;3.90;2.40;;;;;;;11.15;78.69;100307.33;105770;1291;61319;-71
2022/12/26 13:33:05;;;;;;;3.70;1.80;;;;;;;11.14;78.51;100310.98;105780;1291;59011;-72
2022/12/26 13:35:56;;;;;;;2.90;1.80;;;;;;;11.11;78.38;100307.65;105604;1284;74318;-72
2022/12/26 13:38:25;;;;;;;4.00;2.10;;;;;;;11.07;78.55;100300.09;105572;1294;69758;-72
2022/12/26 13:43:53;;;;;;;3.70;1.90;;;;;;;11.04;78.59;100301.93;105762;1286;71895;-72
2022/12/26 13:44:22;;;;;;;3.40;2.00;;;;;;;11.03;79.13;100305.40;105740;1284;60420;-72
2022/12/26 13:46:48;;;;;;;4.90;2.00;;;;;;;11.00;79.13;100323.98;105814;1291;59658;-72
2022/12/26 13:49:35;;;;;;;4.50;2.00;;;;;;;10.97;80.81;100337.63;105743;1291;59076;-72
2022/12/26 13:52:10;;;;;;;5.30;2.10;;;;;;;10.72;84.41;100344.71;105742;1284;69867;-72